Weather reports worldwide

Advertisment
Serralta di S. Vito, Italy (16364): temperature & dewpoint: 10.11.2018 05:00:00 - 16.11.2018 05:00:00 (CET)Serralta di S. Vito, Italy (16364): wind speed: 10.11.2018 05:00:00 - 16.11.2018 05:00:00 (CET)Serralta di S. Vito, Italy (16364): wind direction: 10.11.2018 05:00:00 - 16.11.2018 05:00:00 (CET)Serralta di S. Vito, Italy (16364): precipitation: 10.11.2018 05:00:00 - 16.11.2018 05:00:00 (CET)
Date & Time tt [°C] td [°C] ff [km/h] ff [kn] dd rr [mm]
16.11.2018 05:00:00 - - - - - -
16.11.2018 04:00:00 8,5 6,1 0 0 N -
16.11.2018 03:00:00 8,2 5,8 4 2 W -
16.11.2018 02:00:00 7,7 5,3 8 4 W -
16.11.2018 01:00:00 7,8 5,4 4 2 WSW 0,0
16.11.2018 00:00:00 8,1 5,7 4 2 S -
15.11.2018 23:00:00 8,5 5,7 9 5 S -
15.11.2018 22:00:00 8,2 5,3 4 2 WSW -
15.11.2018 21:00:00 8,5 5,7 2 1 WNW -
15.11.2018 20:00:00 8,4 5,6 4 2 W -
15.11.2018 19:00:00 8,2 5,4 2 1 W 0,0
15.11.2018 18:00:00 8,7 5,9 4 2 SSE -
15.11.2018 17:00:00 9,8 7,2 2 1 SE -
15.11.2018 16:00:00 11,2 8,6 2 1 SW -
15.11.2018 15:00:00 11,3 8,3 9 5 WNW -
15.11.2018 14:00:00 11,8 8,8 4 2 SW -
15.11.2018 13:00:00 13,5 11,0 8 4 WSW 0,0
15.11.2018 12:00:00 14,2 12,0 9 5 WSW -
15.11.2018 11:00:00 12,3 10,2 4 2 WSW -
15.11.2018 10:00:00 10,0 7,9 8 4 SSW -
15.11.2018 09:00:00 9,4 7,3 5 3 WSW -
15.11.2018 08:00:00 8,4 6,3 5 3 W -
15.11.2018 07:00:00 8,6 6,5 9 5 WSW 0,0
15.11.2018 06:00:00 8,4 6,3 9 5 WSW -
15.11.2018 05:00:00 8,8 6,7 9 5 WSW -
15.11.2018 04:00:00 8,4 6,3 11 6 WSW -
15.11.2018 03:00:00 8,8 6,7 13 7 W -
15.11.2018 02:00:00 8,5 6,4 5 3 SW -
15.11.2018 01:00:00 9,3 7,2 9 5 W 0,0
15.11.2018 00:00:00 9,7 7,6 13 7 W -
14.11.2018 23:00:00 9,8 7,7 16 9 W -
14.11.2018 22:00:00 9,8 7,7 16 9 W -
14.11.2018 21:00:00 9,9 7,8 18 10 WSW -
14.11.2018 20:00:00 9,9 7,8 21 11 WNW -
14.11.2018 19:00:00 9,7 7,6 18 10 WSW 0,0
14.11.2018 18:00:00 9,9 7,8 13 7 W -
14.11.2018 17:00:00 9,7 7,6 15 8 W -
14.11.2018 16:00:00 10,1 8,0 13 7 W -
14.11.2018 15:00:00 10,0 7,9 21 11 WSW -
14.11.2018 14:00:00 10,3 8,2 21 11 WSW -
14.11.2018 13:00:00 10,5 8,4 21 11 WSW 0,0
14.11.2018 12:00:00 10,4 8,3 21 11 WSW -
14.11.2018 11:00:00 10,5 8,4 18 10 W -
14.11.2018 10:00:00 10,2 8,1 18 10 WNW -
14.11.2018 09:00:00 10,1 8,0 16 9 W -
14.11.2018 08:00:00 9,8 7,7 18 10 W -
14.11.2018 07:00:00 9,6 7,5 16 9 WSW 0,0
14.11.2018 06:00:00 9,6 7,5 18 10 W -
14.11.2018 05:00:00 9,5 7,4 18 10 W -
14.11.2018 04:00:00 9,4 7,3 21 11 W -
14.11.2018 03:00:00 9,4 7,3 22 12 WNW -
14.11.2018 02:00:00 9,5 7,4 22 12 W -
14.11.2018 01:00:00 9,7 7,6 21 11 WNW 0,0
14.11.2018 00:00:00 9,9 7,8 16 9 WNW -
13.11.2018 23:00:00 9,4 7,3 18 10 W -
13.11.2018 22:00:00 9,4 7,3 21 11 WSW -
13.11.2018 21:00:00 9,8 7,7 22 12 W -
13.11.2018 20:00:00 9,9 7,8 24 13 W -
13.11.2018 19:00:00 9,8 7,9 26 14 WSW 0,0
13.11.2018 18:00:00 9,8 7,9 24 13 WSW -
13.11.2018 17:00:00 9,8 7,5 22 12 W -
13.11.2018 16:00:00 10,7 8,1 21 11 W -
13.11.2018 15:00:00 11,4 8,6 24 13 WNW -
13.11.2018 14:00:00 11,7 8,3 22 12 W -
13.11.2018 13:00:00 13,2 9,8 16 9 W 0,0
13.11.2018 12:00:00 13,7 11,0 13 7 W -
13.11.2018 11:00:00 12,5 10,4 13 7 W -
13.11.2018 10:00:00 10,3 8,2 13 7 W -
13.11.2018 09:00:00 10,1 8,0 16 9 WNW -
13.11.2018 08:00:00 9,8 7,9 13 7 WSW -
13.11.2018 07:00:00 9,9 8,0 13 7 W 0,0
13.11.2018 06:00:00 9,7 7,8 9 5 W -
13.11.2018 05:00:00 9,4 7,1 8 4 W -
13.11.2018 04:00:00 9,1 6,9 8 4 W -
13.11.2018 03:00:00 9,3 7,0 8 4 WSW -
13.11.2018 02:00:00 9,3 7,0 5 3 W -
13.11.2018 01:00:00 9,5 7,1 5 3 WNW 0,0
13.11.2018 00:00:00 9,4 7,0 5 3 W -
12.11.2018 23:00:00 9,3 6,7 5 3 W -
12.11.2018 22:00:00 9,2 6,6 4 2 W -
12.11.2018 21:00:00 9,5 6,9 5 3 W -
12.11.2018 20:00:00 9,4 6,4 5 3 SW -
12.11.2018 19:00:00 9,6 6,8 5 3 ESE 0,0
12.11.2018 18:00:00 10,3 7,5 4 2 NNW -
12.11.2018 17:00:00 11,2 8,4 4 2 W -
12.11.2018 16:00:00 11,5 8,5 8 4 SE -
12.11.2018 15:00:00 12,5 9,1 9 5 SE -
12.11.2018 14:00:00 14,0 10,6 8 4 SSE -
12.11.2018 13:00:00 15,2 10,1 8 4 SE 0,0
12.11.2018 12:00:00 15,4 11,0 11 6 ESE -
12.11.2018 11:00:00 15,2 11,5 15 8 ESE -
12.11.2018 10:00:00 13,4 9,8 13 7 SSE -
12.11.2018 09:00:00 11,9 8,9 13 7 ESE -
12.11.2018 08:00:00 10,6 8,0 13 7 SE -
12.11.2018 07:00:00 9,5 6,9 15 8 SE 0,0
12.11.2018 06:00:00 9,6 7,2 15 8 SE -
12.11.2018 05:00:00 9,4 6,8 13 7 SSE -
12.11.2018 04:00:00 9,3 6,7 15 8 ESE -
12.11.2018 03:00:00 9,4 7,1 16 9 SE -
12.11.2018 02:00:00 9,5 7,1 16 9 SSE -
12.11.2018 01:00:00 9,6 7,3 16 9 SE 0,0
12.11.2018 00:00:00 9,4 7,1 15 8 ESE -
11.11.2018 23:00:00 9,4 7,5 15 8 SE -
11.11.2018 22:00:00 9,2 7,1 15 8 SE -
11.11.2018 21:00:00 9,6 7,5 15 8 SSE -
11.11.2018 20:00:00 9,6 7,7 15 8 S -
11.11.2018 19:00:00 9,6 7,3 15 8 SE 0,0
11.11.2018 18:00:00 9,8 7,4 15 8 SE -
11.11.2018 17:00:00 10,3 7,9 15 8 SSE -
11.11.2018 16:00:00 11,3 8,7 13 7 ESE -
11.11.2018 15:00:00 12,4 9,6 15 8 ESE -
11.11.2018 14:00:00 12,5 9,7 15 8 E -
11.11.2018 13:00:00 12,7 9,7 13 7 E 0,0
11.11.2018 12:00:00 14,9 12,7 15 8 ENE -
11.11.2018 11:00:00 11,6 9,5 15 8 SE -
11.11.2018 10:00:00 10,9 8,8 16 9 SE -
11.11.2018 09:00:00 10,6 8,5 16 9 SE -
11.11.2018 08:00:00 10,4 8,3 11 6 SSE -
11.11.2018 07:00:00 10,2 8,1 21 11 E 0,0
11.11.2018 06:00:00 9,7 7,6 16 9 ESE -
11.11.2018 05:00:00 10,2 8,1 18 10 ESE -
11.11.2018 04:00:00 10,2 8,1 18 10 SE -
11.11.2018 03:00:00 10,1 8,0 21 11 SE -
11.11.2018 02:00:00 10,0 7,9 16 9 E -
11.11.2018 01:00:00 9,8 7,7 16 9 SSE 0,0
11.11.2018 00:00:00 10,0 7,9 16 9 E -
10.11.2018 23:00:00 9,9 7,8 15 8 ESE -
10.11.2018 22:00:00 9,8 7,7 22 12 SE -
10.11.2018 21:00:00 9,7 7,6 21 11 SE -
10.11.2018 20:00:00 9,7 7,8 16 9 ESE -
10.11.2018 19:00:00 9,6 7,7 18 10 SE 0,0
10.11.2018 18:00:00 9,8 7,9 18 10 E -
10.11.2018 17:00:00 10,1 8,2 16 9 E -
10.11.2018 16:00:00 10,9 9,0 16 9 ENE -
10.11.2018 15:00:00 11,4 9,5 16 9 ESE -
10.11.2018 14:00:00 11,3 9,2 13 7 ESE -
10.11.2018 13:00:00 10,7 8,9 15 8 E 0,0
10.11.2018 12:00:00 10,7 8,9 13 7 SSE -
10.11.2018 11:00:00 10,6 8,8 18 10 SSE -
10.11.2018 10:00:00 9,8 7,9 15 8 ESE -
10.11.2018 09:00:00 9,2 7,1 16 9 SSE -
10.11.2018 08:00:00 8,1 5,9 15 8 SE -
10.11.2018 07:00:00 7,9 5,3 11 6 ESE 0,0
10.11.2018 06:00:00 8,3 5,5 13 7 SE -
10.11.2018 05:00:00 8,4 6,0 9 5 SE -

tt = temperature
td = dewpoint
ff = wind speed
dd = wind direction
rr = precipitation

Next stations